アスタナ国際空港の過去48時間の天気

アスタナ国際空港 (Astana)

現在時刻: 2/27 18:58 +05 (2/27 13:58 UTC) 以下の時間は現地時間です。

過去48時間のMETAR気象情報
時間 風向 風速(m/s) 視程 気温(℃) 湿度(%) 気圧(hPa) 天気現象
27 18:30 西 10 5000m -1 86 1015 弱い雪 低い地吹雪
27 18:00 西 8 6000m -2 93 1014 弱い雪
27 17:30 西 10 10km以上 -2 86 1013
27 17:00 西 10 10km以上 -2 86 1012
27 16:30 西 10 10km以上 -2 86 1011 弱い雪 低い地吹雪
27 16:00 西 11 10km以上 -2 86 1010 弱い雪 低い地吹雪
27 15:30 西 11 10km以上 -2 86 1009 弱い雪 低い地吹雪
27 15:00 西 12 6000m -2 86 1008 弱い雪 低い地吹雪
27 14:30 西 13 10km以上 -2 86 1006 弱い雪 低い地吹雪
27 14:00 西 13 9000m -2 86 1005 弱い雪 低い地吹雪
27 13:30 西 12 2900m -3 93 1004 雪 高い地吹雪
27 13:00 西 12 3500m -3 93 1003 雪 高い地吹雪
27 12:30 西 12 750m -2 86 1003 雪 高い地吹雪
27 12:00 西 13 1800m -2 86 1002 雪 高い地吹雪
27 11:30 西 14 450m -2 86 1001 雪 高い地吹雪
27 11:00 西南西 15 500m -2 93 1001 雪 高い地吹雪
27 10:30 西南西 15 300m -1 93 1000 高い地吹雪 雪
27 10:00 南西 17 350m -2 93 999 雪 高い地吹雪
27 09:30 南西 19 300m -2 93 999 雪 高い地吹雪
27 09:00 南西 18 350m -2 93 999 雪 高い地吹雪
27 08:30 南西 18 150m -2 93 999 雪 高い地吹雪
27 08:00 南西 18 300m -2 100 999 雪 高い地吹雪
27 07:30 南西 18 6000m -1 86 999 弱い雪 低い地吹雪
27 07:00 南西 18 3400m -1 86 999 雪 高い地吹雪
27 06:30 南西 15 3000m 0 86 999 雪 高い地吹雪
27 06:00 南西 15 10km以上 0 86 999
27 05:30 南西 15 10km以上 0 86 999
27 05:00 南西 15 10km以上 0 86 999
27 04:30 南西 14 10km以上 0 86 999
27 04:00 南西 15 10km以上 0 86 999 弱い雪 弱い雨
27 03:30 南南西 14 10km以上 0 86 999 弱い雪 弱い雨
27 03:00 南南西 13 10km以上 -1 93 999 弱い雪
27 02:30 南南西 12 10km以上 0 80 1000 弱い雪
27 02:00 南西 11 10km以上 0 80 1000
27 01:30 南西 10 10km以上 0 86 1000
27 01:00 南西 10 10km以上 0 86 1000
27 00:30 南西 10 10km以上 0 86 1000
27 00:00 南西 10 10km以上 0 86 1000
26 23:30 南西 9 10km以上 0 86 1000
26 23:00 西南西 9 10km以上 0 86 1001 弱い雨 弱い雪
26 22:30 西南西 9 10km以上 0 86 1001
26 22:00 西南西 7 10km以上 0 93 1001
26 21:30 西南西 9 10km以上 1 93 1000 弱い雪 弱い雨
26 21:00 西南西 8 2900m 1 93 1000 雪 雨
26 20:30 西南西 9 5000m 1 93 1000 弱い雪 弱い雨
26 20:00 南南西 7 2300m 0 100 1000 しゅう雨 しゅう雪
26 19:30 南南西 7 1700m 0 100 1000 しゅう雨 雪
26 19:00 南南西 8 1700m 1 93 1000 雨 雪
26 18:30 南南西 10 2400m 1 93 1000
26 18:00 南南西 11 3200m 2 93 1000
26 17:30 10 5000m 2 93 1000 弱い雨
26 17:00 10 7000m 2 93 1000 弱い雨
26 16:30 11 7000m 2 93 1001 弱い雨
26 16:00 12 9000m 2 93 1001 弱い雨
26 15:30 13 8000m 2 93 1001 弱いしゅう雨
26 15:00 南南東 12 10km以上 2 93 1001
26 14:30 南南東 14 10km以上 2 93 1001 弱いしゅう雨
26 14:00 南南東 13 5000m 2 93 1002 弱いしゅう雨
26 13:30 南南東 13 7000m 2 93 1003 弱いしゅう雨
26 13:00 南南東 11 5000m 2 87 1004 弱いしゅう雨
26 12:30 南南東 12 10km以上 1 93 1004 弱いしゅう雨
26 12:00 南南東 12 10km以上 1 86 1005 弱いしゅう雨
26 11:30 南南東 12 10km以上 1 86 1006
26 11:00 南南東 11 10km以上 1 86 1006 弱いしゅう雨
26 10:30 南南東 11 10km以上 0 93 1008 弱いしゅう雨
26 10:00 南南東 9 10km以上 0 86 1009 弱いしゅう雨 弱いしゅう雪
26 09:30 南南東 8 10km以上 0 86 1009 弱いしゅう雨 弱いしゅう雪
26 09:00 南南東 8 10km以上 -1 86 1010
26 08:30 南南東 8 10km以上 -1 86 1011
26 08:00 南東 6 10km以上 -2 86 1011
26 07:30 南南東 4 10km以上 -2 86 1012
26 07:00 南東 5 10km以上 -2 86 1012
26 06:30 南南東 7 10km以上 -3 93 1013
26 06:00 南南東 7 10km以上 -3 93 1013
26 05:30 南南東 7 10km以上 -3 93 1013
26 05:00 7 10km以上 -4 100 1014
26 04:30 南南東 6 10km以上 -4 100 1014
26 04:00 南南東 5 10km以上 -4 93 1014
26 03:30 4 10km以上 -4 100 1015
26 03:00 南南東 6 10km以上 -3 93 1015
26 02:30 5 10km以上 -3 93 1016
26 02:00 4 10km以上 -3 93 1016
26 01:30 南南東 6 10km以上 -3 93 1016
26 01:00 5 10km以上 -3 100 1017
26 00:30 6 10km以上 -3 100 1017
26 00:00 5 10km以上 -3 100 1017
25 23:30 南南東 4 10km以上 -3 100 1017
25 23:00 6 9000m -2 93 1018
25 22:30 南南東 4 10km以上 -3 100 1018
25 22:00 南東 4 1800m -3 93 1018 もや
25 21:30 南東 4 5000m -3 93 1018 弱い雪 もや
25 21:00 南南東 4 10km以上 -3 93 1018
25 20:30 5 10km以上 -4 100 1019
25 20:00 5 10km以上 -3 93 1019
25 19:30 5 10km以上 -3 93 1019
25 19:00 5 10km以上 -4 100 1019
UACC 271330Z 27010G16MPS 5000 -SN DRSN BKN008 OVC021 M01/M03 Q1015 R22/420345 NOSIG RMK QFE730/0974
UACC 271300Z 26008MPS 6000 -SN BKN008 OVC026 M02/M03 Q1014 R22/420345 NOSIG RMK QFE729/0972
UACC 271230Z 27010G15MPS 9999 BKN013 OVC026 M02/M04 Q1013 R22/420345 NOSIG RMK QFE729/0972
UACC 271200Z 28010G15MPS 9999 SCT011 BKN040 M02/M04 Q1012 R22/420345 NOSIG RMK QFE728/0971
UACC 271130Z 27010G15MPS 9999 -SN DRSN SCT011 BKN040 M02/M04 Q1011 R22/420345 NOSIG RMK QFE727/0970
UACC 271100Z 27011G16MPS 9999 -SN DRSN SCT011 BKN040 M02/M04 Q1010 R22/420345 NOSIG RMK QFE726/0969
UACC 271030Z 27011G17MPS 9999 -SN DRSN SCT010 BKN040 M02/M04 Q1009 R22/420345 NOSIG RMK QFE726/0968
UACC 271000Z 27012G18MPS 6000 -SN DRSN SCT009 OVC030 M02/M04 Q1008 R22/420345 NOSIG RMK QFE725/0966
UACC 270930Z 27013G18MPS 9999 -SN DRSN SCT009 OVC030 M02/M04 Q1006 R22/420345 NOSIG RMK QFE724/0965
UACC 270900Z 27013G18MPS 9000 -SN DRSN SCT008 OVC030 M02/M04 Q1005 R22/420345 NOSIG RMK QFE723/0964
UACC 270830Z 27012G17MPS 2900 SN BLSN SCT007 OVC023 M03/M04 Q1004 R22/95//40 NOSIG RMK QFE722/0963
UACC 270800Z 26012G19MPS 3500 SN BLSN SCT007 OVC023 M03/M04 Q1003 R22/95//40 NOSIG RMK QFE722/0962
UACC 270730Z 26012G17MPS 0750 R22/0500V1000N SN BLSN SCT007 OVC023 M02/M04 Q1003 R22/95//40 NOSIG RMK QFE721/0962
UACC 270700Z 26013G19MPS 1800 SN BLSN SCT007 OVC027 M02/M04 Q1002 R22/95//40 BECMG 24021G26MPS 0200 SN BLSN RMK QFE720/0961
UACC 270630Z 26014G21MPS 0450 R22/0400V0700N SN BLSN SCT009 OVC027 M02/M04 Q1001 R22/95//40 BECMG 24021G26MPS 0200 SN BLSN RMK QFE720/0960
UACC 270600Z 25015G21MPS 0500 R22/0550N SN BLSN SCT010 OVC027 M02/M03 Q1001 R22/95//40 BECMG 24021G26MPS 0200 SN BLSN RMK QFE720/0960
UACC 270530Z 24015G20MPS 0300 R22/0200V0400D SN BLSN SCT007 OVC020 M01/M02 Q1000 R22/99//45 BECMG 24021G26MPS 0200 SN BLSN RMK QFE719/0959
UACC 270500Z 23017G23MPS 0350 R22/0450N SN BLSN SCT007 OVC020 M02/M03 Q0999 R22/99//45 BECMG 24021G26MPS 0200 SN BLSN RMK QFE719/0958
UACC 270430Z 23019MPS 0300 R22/0300N SN BLSN SCT007 OVC020 M02/M03 Q0999 R22/99//45 BECMG 24021G26MPS 0200 SN BLSN RMK QFE718/0958
UACC 270400Z 23018G24MPS 0350 R22/0350N SN BLSN SCT007 OVC020 M02/M03 Q0999 R22/99//45 TEMPO 24021G26MPS 0200 SN BLSN RMK QFE718/0958
UACC 270330Z 23018G23MPS 0150 R22/0300N SN BLSN SCT007 OVC020 M02/M03 Q0999 R22/99//45 TEMPO 24020G25MPS 0300 SN BLSN RMK QFE718/0958
UACC 270300Z 23018MPS 0300 R22/0300N SN BLSN SCT009 OVC026 M02/M02 Q0999 R22/99//45 TEMPO 24020G25MPS 0300 SN BLSN RMK QFE718/0958
UACC 270230Z 23018G23MPS 6000 -SN DRSN SCT013 OVC026 M01/M03 Q0999 R22/99//45 TEMPO 24015G20MPS 0300 SN BLSN RMK QFE718/0958
UACC 270200Z 23018MPS 3400 SN BLSN SCT013 OVC026 M01/M03 Q0999 R22/99//45 TEMPO 24015G20MPS 0300 SN BLSN RMK QFE718/0958
UACC 270130Z 23015MPS 3000 SN BLSN BKN006 OVC026 M00/M02 Q0999 R22/1///50 TEMPO 24015G20MPS 0300 SN BLSN RMK QBB200 QFE718/0958
UACC 270100Z 23015G20MPS 9999 BKN011 OVC026 M00/M02 Q0999 R22/1///50 TEMPO 24015G20MPS 0500 SN BLSN RMK QFE718/0958
UACC 270030Z 22015MPS 9999 BKN014 OVC026 M00/M02 Q0999 R22/1///50 TEMPO 24015G20MPS -SNRA RMK QFE718/0958
UACC 270000Z 22015MPS 9999 BKN012 OVC026 M00/M02 Q0999 R22/620345 TEMPO 24015G20MPS -SNRA RMK QFE718/0958
UACC 262330Z 22014MPS 9999 OVC011 M00/M02 Q0999 R22/620345 TEMPO 24013G18MPS -SNRA RMK QFE718/0958
UACC 262300Z 22015G20MPS 9999 -SNRA SCT012 OVC030 M00/M02 Q0999 R22/620345 TEMPO 24013G18MPS -SNRA RMK QFE718/0958
UACC 262230Z 21014MPS 9999 -SNRA SCT012 OVC030 M00/M02 Q0999 R22/620345 TEMPO 24013G18MPS -SNRA RMK QFE718/0958
UACC 262200Z 21013MPS 9999 -SN SCT013 OVC030 M01/M02 Q0999 R22/620345 NOSIG RMK QFE719/0958
UACC 262130Z 21012MPS 9999 -SN SCT016 OVC030 M00/M03 Q1000 R22/620345 NOSIG RMK QFE719/0959
UACC 262100Z 22011MPS 9999 OVC030 M00/M03 Q1000 R22/620345 NOSIG RMK QFE719/0959
UACC 262030Z 22010MPS 9999 OVC026 M00/M02 Q1000 R22/620345 TEMPO -RASN RMK QFE719/0959
UACC 262000Z 23010MPS 9999 OVC026 00/M02 Q1000 R22/620345 TEMPO -RASN RMK QFE719/0959
UACC 261930Z 22010G15MPS 9999 OVC026 00/M02 Q1000 R22/620345 TEMPO -RASN RMK QFE719/0959
UACC 261900Z 23010MPS 9999 OVC026 00/M02 Q1000 R22/620345 TEMPO -RASN RMK QFE719/0959
UACC 261830Z 23009MPS 9999 OVC033 00/M02 Q1000 R22/620345 NOSIG RMK QFE719/0959
UACC 261800Z 24009MPS 9999 -RASN OVC021 00/M02 Q1001 R22/620345 NOSIG RMK QFE720/0960
UACC 261730Z 25009MPS 9999 SCT007 OVC021 00/M02 Q1001 R22/620540 NOSIG RMK QFE720/0960
UACC 261700Z 25007MPS 9999 OVC008 00/M01 Q1001 R22/620540 NOSIG RMK QFE720/0960
UACC 261630Z 25009MPS 9999 -SNRA OVC005 01/M00 Q1000 R22/620540 NOSIG RMK QBB160 QFE719/0959
UACC 261600Z 24008MPS 2900 SNRA OVC005 01/00 Q1000 R22/690535 NOSIG RMK QBB160 QFE719/0959
UACC 261530Z 24009MPS 5000 -SNRA OVC006 01/00 Q1000 R22/690535 BECMG 1000 SHRASN BKN015CB RMK QBB180 QFE719/0959
UACC 261500Z 21007MPS 2300 SHRASN BKN003 OVC013CB 00/00 Q1000 R22/690535 BECMG 1000 SHRASN BKN015CB RMK QBB110 QFE719/0959
UACC 261430Z 20007MPS 1700 R22/P2000U SHRASN BKN003 OVC013CB 00/00 Q1000 R22/2///50 BECMG 1000 SHRASN BKN015CB RMK QBB110 QFE719/0959
UACC 261400Z 20008MPS 1700 R22/2000N RASN OVC004 01/00 Q1000 R22/2///50 BECMG 1000 SHRASN BKN015CB RMK QBB120 QFE719/0959
UACC 261330Z 20010MPS 2400 RA OVC004 01/00 Q1000 R22/2/0350 NOSIG RMK QBB140 QFE719/0959
UACC 261300Z 20011MPS 3200 RA OVC007 02/01 Q1000 R22/2/0350 NOSIG RMK QFE719/0959
UACC 261230Z 19010MPS 5000 -RA OVC006 02/01 Q1000 R22/2/0350 NOSIG RMK QBB180 QFE719/0959
UACC 261200Z 19010MPS 7000 -RA OVC007 02/01 Q1000 R22/2/0350 NOSIG RMK QFE719/0959
UACC 261130Z 19011MPS 7000 -RA OVC008 02/01 Q1001 R22/2/0350 NOSIG RMK QFE720/0960
UACC 261100Z 19012MPS 9000 -RA BKN012 OVC016 02/01 Q1001 R22/2/0350 NOSIG RMK QFE720/0960
UACC 261030Z 18013MPS 8000 -SHRA BKN016CB OVC022 02/01 Q1001 R22/2/0350 NOSIG RMK QFE720/0960
UACC 261000Z 16012MPS 9999 SCT023CB OVC030 02/01 Q1001 R22/2/0350 NOSIG RMK QFE720/0960
UACC 260930Z 16014MPS 9999 -SHRA SCT031CB OVC040 02/01 Q1001 R22/2/0350 NOSIG RMK QFE720/0960
UACC 260900Z 16013MPS 5000 -SHRA BKN030CB OVC043 02/01 Q1002 R22/2/0350 NOSIG RMK QFE721/0961
UACC 260830Z 16013MPS 7000 -SHRA BKN026CB OVC040 02/01 Q1003 R22/2/0350 NOSIG RMK QFE721/0962
UACC 260800Z 16011MPS 5000 -SHRA SCT030CB OVC040 02/00 Q1004 R22/2/0350 NOSIG RMK QFE722/0963
UACC 260730Z 15012MPS 9999 -SHRA SCT030CB OVC043 01/M00 Q1004 R22/2///60 NOSIG RMK QFE722/0963
UACC 260700Z 16012MPS 9999 -SHRA SCT040CB OVC046 01/M01 Q1005 R22/2///60 NOSIG RMK QFE723/0964
UACC 260630Z 16012MPS 9999 SCT040CB OVC046 01/M01 Q1006 R22/2///60 NOSIG RMK QFE723/0965
UACC 260600Z 15011MPS 9999 -SHRA SCT040CB OVC046 01/M01 Q1006 R22/15//65 NOSIG RMK QFE724/0965
UACC 260530Z 15011MPS 9999 -SHRA SCT036CB OVC043 00/M01 Q1008 R22/15//65 NOSIG RMK QFE725/0966
UACC 260500Z 15009MPS 9999 -SHRASN SCT040CB OVC046 M00/M02 Q1009 R22/15//65 NOSIG RMK QFE725/0967
UACC 260430Z 16008MPS 9999 -SHRASN SCT040CB OVC046 M00/M02 Q1009 R22/15//65 NOSIG RMK QFE726/0968
UACC 260400Z 15008MPS 9999 BKN046 OVC073 M01/M03 Q1010 R22/15//65 NOSIG RMK QFE726/0969
UACC 260330Z 16008MPS 9999 SCT043 BKN080 M01/M03 Q1011 R22/15//65 NOSIG RMK QFE727/0969
UACC 260300Z 13006G11MPS 9999 SCT040 BKN086 M02/M04 Q1011 R22/15//65 NOSIG RMK QFE727/0970
UACC 260230Z 15004MPS 9999 SCT040 BKN083 M02/M04 Q1012 R22/15//65 NOSIG RMK QFE728/0971
UACC 260200Z 14005MPS 9999 SCT040 BKN083 M02/M04 Q1012 R22/15//65 NOSIG RMK QFE728/0971
UACC 260130Z 16007MPS 9999 SCT033 OVC083 M03/M04 Q1013 R22/15//65 NOSIG RMK QFE728/0971
UACC 260100Z 16007MPS 9999 SCT033 OVC083 M03/M04 Q1013 R22/15//65 NOSIG RMK QFE728/0971
UACC 260030Z 16007MPS 9999 SCT033 OVC083 M03/M04 Q1013 R22/15//65 NOSIG RMK QFE729/0972
UACC 260000Z 17007MPS 9999 SCT033 OVC100 M04/M04 Q1014 R22/15//65 NOSIG RMK QFE729/0972
UACC 252330Z 15006MPS 9999 SCT033 OVC100 M04/M04 Q1014 R22/15//65 NOSIG RMK QFE729/0972
UACC 252300Z 16005MPS 9999 SCT033 OVC100 M04/M05 Q1014 R22/15//65 NOSIG RMK QFE729/0973
UACC 252230Z 17004MPS 9999 SCT033 OVC100 M04/M04 Q1015 R22/15//65 NOSIG RMK QFE730/0973
UACC 252200Z 16006MPS 9999 SCT033 OVC100 M03/M04 Q1015 R22/15//65 NOSIG RMK QFE730/0974
UACC 252130Z 17005MPS 9999 SCT033 OVC100 M03/M04 Q1016 R22/15//65 NOSIG RMK QFE731/0974
UACC 252100Z 17004MPS 9999 SCT033 OVC083 M03/M04 Q1016 R22/15//65 NOSIG RMK QFE731/0975
UACC 252030Z 15006MPS 9999 SCT033 OVC083 M03/M04 Q1016 R22/15//65 NOSIG RMK QFE731/0975
UACC 252000Z 17005MPS 9999 SCT033 OVC083 M03/M03 Q1017 R22/15//65 NOSIG RMK QFE731/0975
UACC 251930Z 18006MPS 9999 SCT013 OVC083 M03/M03 Q1017 R22/15//65 NOSIG RMK QFE732/0976
UACC 251900Z 17005MPS 9999 BKN010 OVC083 M03/M03 Q1017 R22/15//65 NOSIG RMK QFE732/0976
UACC 251830Z 16004MPS 9999 BKN006 OVC083 M03/M03 Q1017 R22/15//65 NOSIG RMK QBB190 QFE732/0976
UACC 251800Z 17006MPS 9000 BKN006 OVC083 M02/M03 Q1018 R22/15//65 NOSIG RMK QBB190 QFE732/0976
UACC 251730Z 15004MPS 9999 OVC006 M03/M03 Q1018 R22/15//65 NOSIG RMK QBB200 QFE732/0976
UACC 251700Z 14004MPS 1800 R22/2000U BR OVC002 M03/M04 Q1018 R22/15//65 NOSIG RMK QBB070 QFE732/0976
UACC 251630Z 14004MPS 5000 -SN BR BKN003 OVC033 M03/M04 Q1018 R22/15//65 NOSIG RMK QBB090 QFE732/0977
UACC 251600Z 16004MPS 9999 BKN003 OVC033 M03/M04 Q1018 R22/15//65 NOSIG RMK QBB110 QFE732/0977
UACC 251530Z 17005MPS 9999 BKN008 OVC050 M04/M04 Q1019 R22/15//65 NOSIG RMK QFE733/0977
UACC 251500Z 17005MPS 9999 OVC011 M03/M04 Q1019 R22/15//65 NOSIG RMK QFE733/0977
UACC 251430Z 17005MPS 9999 OVC014 M03/M04 Q1019 R22/15//65 NOSIG RMK QFE733/0977
UACC 251400Z 17005MPS 9999 OVC016 M04/M04 Q1019 R22/15//65 NOSIG RMK QFE733/0977